createdAt,value
2018-05-18T00:00:07.530Z,63.16
2018-05-18T00:02:35.993Z,63.44
2018-05-18T00:05:05.204Z,63.59
2018-05-18T00:07:33.567Z,63.60
2018-05-18T00:10:01.960Z,63.53
2018-05-18T00:12:30.458Z,63.20
2018-05-18T00:14:58.810Z,63.25
2018-05-18T00:17:27.165Z,63.95
2018-05-18T00:19:57.764Z,63.92
2018-05-18T00:22:27.077Z,63.56
2018-05-18T00:24:55.413Z,63.46
2018-05-18T00:27:23.753Z,64.10
2018-05-18T00:29:52.871Z,64.00
2018-05-18T00:32:21.215Z,63.96
2018-05-18T00:34:50.418Z,64.18
2018-05-18T00:37:18.762Z,64.29
2018-05-18T00:39:47.345Z,64.47
2018-05-18T00:42:15.696Z,64.54
2018-05-18T00:44:44.921Z,64.41
2018-05-18T00:47:13.633Z,64.68
2018-05-18T00:49:41.972Z,64.77
2018-05-18T00:52:10.323Z,64.59
2018-05-18T00:54:39.477Z,64.26
2018-05-18T00:57:09.389Z,64.00
2018-05-18T00:59:37.765Z,64.08
2018-05-18T01:02:06.912Z,64.20
2018-05-18T01:04:36.050Z,64.11
2018-05-18T01:07:04.414Z,64.13
2018-05-18T01:09:32.844Z,64.63
2018-05-18T01:12:01.966Z,64.82
2018-05-18T01:14:30.811Z,65.32
2018-05-18T01:16:59.256Z,65.30
2018-05-18T01:19:27.600Z,65.09
2018-05-18T01:21:55.990Z,65.34
2018-05-18T01:24:25.065Z,65.21
2018-05-18T01:26:53.441Z,65.12
2018-05-18T01:29:23.280Z,65.23
2018-05-18T01:31:53.149Z,65.44
2018-05-18T01:34:21.519Z,65.11
2018-05-18T01:36:50.681Z,64.83
2018-05-18T01:39:19.091Z,64.78
2018-05-18T01:41:47.468Z,64.75
2018-05-18T01:44:16.092Z,64.72
2018-05-18T01:46:45.211Z,64.67
2018-05-18T01:49:13.535Z,65.45
2018-05-18T01:51:43.432Z,65.48
2018-05-18T01:54:11.752Z,65.82
2018-05-18T01:56:40.885Z,66.16
2018-05-18T01:59:09.253Z,65.79
2018-05-18T02:01:37.596Z,65.71
2018-05-18T02:04:05.923Z,65.84
2018-05-18T02:06:34.261Z,65.71
2018-05-18T02:09:05.683Z,65.95
2018-05-18T02:11:35.412Z,65.97
2018-05-18T02:14:03.845Z,65.61
2018-05-18T02:16:32.310Z,65.76
2018-05-18T02:19:00.651Z,65.62
2018-05-18T02:21:29.206Z,65.48
2018-05-18T02:23:58.362Z,65.51
2018-05-18T02:26:26.681Z,65.37
2018-05-18T02:28:55.038Z,65.50
2018-05-18T02:31:23.455Z,65.20
2018-05-18T02:33:52.539Z,65.21
2018-05-18T02:36:22.287Z,64.93
2018-05-18T02:38:52.055Z,65.11
2018-05-18T02:41:20.479Z,65.29
2018-05-18T02:43:49.617Z,65.26
2018-05-18T02:46:18.554Z,65.12
2018-05-18T02:48:47.181Z,65.33
2018-05-18T02:51:15.558Z,65.42
2018-05-18T02:53:43.915Z,65.32
2018-05-18T02:56:13.007Z,65.07
2018-05-18T02:58:42.209Z,65.23
2018-05-18T03:01:11.344Z,65.07
2018-05-18T03:03:41.148Z,65.33
2018-05-18T03:06:09.504Z,65.31
2018-05-18T03:08:37.918Z,66.10
2018-05-18T03:11:06.979Z,65.90
2018-05-18T03:13:36.782Z,66.40
2018-05-18T03:16:06.386Z,66.46
2018-05-18T03:18:35.463Z,66.22
2018-05-18T03:21:04.603Z,66.11
2018-05-18T03:23:34.016Z,65.97
2018-05-18T03:26:03.384Z,65.97
2018-05-18T03:28:32.519Z,65.92
2018-05-18T03:31:00.874Z,65.90
2018-05-18T03:35:57.583Z,65.63
2018-05-18T03:38:26.830Z,65.72
2018-05-18T03:40:55.181Z,66.02
2018-05-18T03:43:24.295Z,65.89
2018-05-18T03:45:52.657Z,65.86
2018-05-18T03:48:21.809Z,65.75
2018-05-18T03:50:50.540Z,65.47
2018-05-18T03:53:19.699Z,65.03
2018-05-18T03:55:48.096Z,64.85
2018-05-18T03:58:17.246Z,65.44
2018-05-18T04:00:45.559Z,65.25
2018-05-18T04:03:31.562Z,65.54
2018-05-18T04:06:17.722Z,66.01
2018-05-18T04:08:53.169Z,65.21
2018-05-18T04:11:21.516Z,64.82
2018-05-18T04:13:50.809Z,64.92
2018-05-18T04:16:19.892Z,65.30
2018-05-18T04:18:48.232Z,65.37
2018-05-18T04:21:16.577Z,65.11
2018-05-18T04:23:44.975Z,65.30
2018-05-18T04:26:13.433Z,64.87
2018-05-18T04:28:42.595Z,64.92
2018-05-18T04:31:10.974Z,65.86
2018-05-18T04:33:39.333Z,64.98
2018-05-18T04:36:07.681Z,64.44
2018-05-18T04:38:36.803Z,64.22
2018-05-18T04:41:06.091Z,64.47
2018-05-18T04:43:34.574Z,64.56
2018-05-18T04:46:02.949Z,64.53
2018-05-18T04:48:31.288Z,64.69
2018-05-18T04:51:00.433Z,64.80
2018-05-18T04:53:28.840Z,64.85
2018-05-18T04:55:57.175Z,64.62
2018-05-18T04:58:25.537Z,64.51
2018-05-18T05:00:53.866Z,64.41
2018-05-18T05:03:22.205Z,64.48
2018-05-18T05:05:50.558Z,64.67
2018-05-18T05:08:19.678Z,64.59
2018-05-18T05:10:48.081Z,64.90
2018-05-18T05:13:16.464Z,64.98
2018-05-18T05:15:44.780Z,64.43
2018-05-18T05:18:15.312Z,64.71
2018-05-18T05:20:44.404Z,64.55
2018-05-18T05:23:13.497Z,64.64
2018-05-18T05:25:42.622Z,64.40
2018-05-18T05:28:10.982Z,64.48
2018-05-18T05:30:40.100Z,64.84
2018-05-18T05:33:08.467Z,64.43
2018-05-18T05:35:37.607Z,64.09
2018-05-18T05:38:05.958Z,63.67
2018-05-18T05:40:34.366Z,63.49
2018-05-18T05:43:02.805Z,63.42
2018-05-18T05:45:31.163Z,63.41
2018-05-18T05:48:00.938Z,63.63
2018-05-18T05:50:29.272Z,63.63
2018-05-18T05:52:58.373Z,63.84
2018-05-18T05:55:27.569Z,63.92
2018-05-18T05:57:55.924Z,63.69
2018-05-18T06:00:25.597Z,63.58
2018-05-18T06:02:53.942Z,63.47
2018-05-18T06:05:22.297Z,63.82
2018-05-18T06:07:51.503Z,63.73
2018-05-18T06:10:19.832Z,63.83
2018-05-18T06:12:48.201Z,63.77
2018-05-18T06:15:16.588Z,63.86
2018-05-18T06:17:44.925Z,64.17
2018-05-18T06:20:13.267Z,63.77
2018-05-18T06:22:42.348Z,63.91
2018-05-18T06:25:10.713Z,63.97
2018-05-18T06:27:39.045Z,64.51
2018-05-18T06:30:08.196Z,64.07
2018-05-18T06:32:36.523Z,64.09
2018-05-18T06:35:04.971Z,63.89
2018-05-18T06:37:33.365Z,63.39
2018-05-18T06:40:02.570Z,63.35
2018-05-18T06:42:30.938Z,63.51
2018-05-18T06:45:00.791Z,63.04
2018-05-18T06:47:29.141Z,63.19
2018-05-18T06:49:58.254Z,63.03
2018-05-18T06:52:26.605Z,62.78
2018-05-18T06:54:55.838Z,62.72
2018-05-18T06:57:24.235Z,62.91
2018-05-18T06:59:52.623Z,63.35
2018-05-18T07:02:21.081Z,63.46
2018-05-18T07:04:49.462Z,64.15
2018-05-18T07:07:19.283Z,64.09
2018-05-18T07:09:48.640Z,64.11
2018-05-18T07:12:17.851Z,63.82
2018-05-18T07:14:47.044Z,63.40
2018-05-18T07:17:16.896Z,63.41
2018-05-18T07:19:46.065Z,63.17
2018-05-18T07:22:14.417Z,62.95
2018-05-18T07:24:43.559Z,62.91
2018-05-18T07:27:11.908Z,62.99
2018-05-18T07:29:41.038Z,63.00
2018-05-18T07:32:09.402Z,63.31
2018-05-18T07:34:37.743Z,63.36
2018-05-18T07:37:06.904Z,63.17
2018-05-18T07:39:35.239Z,63.18
2018-05-18T07:42:04.381Z,63.18
2018-05-18T07:44:32.759Z,63.01
2018-05-18T07:47:01.122Z,63.28
2018-05-18T07:49:29.579Z,63.05
2018-05-18T07:51:57.988Z,62.76
2018-05-18T07:54:26.347Z,62.45
2018-05-18T07:56:54.706Z,62.38
2018-05-18T07:59:23.862Z,62.03
2018-05-18T08:01:52.212Z,62.28
2018-05-18T08:04:20.602Z,61.94
2018-05-18T08:06:48.947Z,62.66
2018-05-18T08:09:17.312Z,62.34
2018-05-18T08:11:47.104Z,62.33
2018-05-18T08:14:16.205Z,62.10
2018-05-18T08:16:45.393Z,61.78
2018-05-18T08:19:13.790Z,61.46
2018-05-18T08:21:42.592Z,61.47
2018-05-18T08:24:10.883Z,61.26
2018-05-18T08:26:39.250Z,61.08
2018-05-18T08:29:40.085Z,60.44
2018-05-18T08:32:09.193Z,60.27
2018-05-18T08:34:37.554Z,59.82
2018-05-18T08:37:05.976Z,60.30
2018-05-18T08:39:34.373Z,60.33
2018-05-18T08:42:03.469Z,60.20
2018-05-18T08:44:33.041Z,59.88
2018-05-18T08:47:01.392Z,59.90
2018-05-18T08:49:30.479Z,59.52
2018-05-18T08:51:58.889Z,59.60
2018-05-18T08:54:27.960Z,59.28
2018-05-18T08:56:57.708Z,59.11
2018-05-18T08:59:26.114Z,58.96
2018-05-18T09:01:54.505Z,59.00
2018-05-18T09:04:22.955Z,59.42
2018-05-18T09:06:51.296Z,59.42
2018-05-18T09:09:20.399Z,59.41
2018-05-18T09:11:48.752Z,59.29
2018-05-18T09:14:17.098Z,59.29
2018-05-18T09:16:45.490Z,59.38
2018-05-18T09:19:13.851Z,59.27
2018-05-18T09:21:42.225Z,58.97
2018-05-18T09:24:10.873Z,59.16
2018-05-18T09:26:39.975Z,58.92
2018-05-18T09:29:08.380Z,59.27
2018-05-18T09:31:36.757Z,58.64
2018-05-18T09:34:05.112Z,58.44
2018-05-18T09:36:33.451Z,57.61
2018-05-18T09:39:02.404Z,57.36
2018-05-18T09:41:30.752Z,56.93
2018-05-18T09:43:59.843Z,56.86
2018-05-18T09:46:28.222Z,57.16
2018-05-18T09:48:57.390Z,56.99
2018-05-18T09:51:26.072Z,56.92
2018-05-18T09:53:54.420Z,56.80
2018-05-18T09:56:22.758Z,56.34
2018-05-18T09:58:52.739Z,56.23
2018-05-18T10:01:21.199Z,56.51
2018-05-18T10:03:50.338Z,56.39
2018-05-18T10:06:18.732Z,56.52
2018-05-18T10:08:47.847Z,56.90
2018-05-18T10:11:16.231Z,56.23
2018-05-18T10:13:44.567Z,55.69
2018-05-18T10:16:13.219Z,55.64
2018-05-18T10:18:41.635Z,55.94
2018-05-18T10:21:09.999Z,56.21
2018-05-18T10:23:39.346Z,56.35
2018-05-18T10:26:07.681Z,56.86
2018-05-18T10:28:36.022Z,57.33
2018-05-18T10:31:04.406Z,57.06
2018-05-18T10:33:34.278Z,56.33
2018-05-18T10:36:04.209Z,56.06
2018-05-18T10:38:33.469Z,56.05
2018-05-18T10:41:01.907Z,55.71
2018-05-18T10:43:30.243Z,55.55
2018-05-18T10:45:59.316Z,54.97
2018-05-18T10:48:29.201Z,55.32
2018-05-18T10:50:57.597Z,55.02
2018-05-18T10:53:25.943Z,54.73
2018-05-18T10:55:54.282Z,55.80
2018-05-18T10:58:22.937Z,55.30
2018-05-18T11:00:51.299Z,55.59
2018-05-18T11:03:19.667Z,55.11
2018-05-18T11:05:48.033Z,55.09
2018-05-18T11:08:17.188Z,54.89
2018-05-18T11:10:45.560Z,54.31
2018-05-18T11:13:13.957Z,54.86
2018-05-18T11:15:42.332Z,54.89
2018-05-18T11:18:10.685Z,54.78
2018-05-18T11:20:39.030Z,54.91
2018-05-18T11:23:07.520Z,55.00
2018-05-18T11:25:36.679Z,54.90
2018-05-18T11:28:05.841Z,54.95
2018-05-18T11:30:35.019Z,55.21
2018-05-18T11:33:03.430Z,55.60
2018-05-18T11:35:31.722Z,55.51
2018-05-18T11:38:00.966Z,55.46
2018-05-18T11:40:29.312Z,55.33
2018-05-18T11:42:58.435Z,55.30
2018-05-18T11:45:26.788Z,55.04
2018-05-18T11:47:55.890Z,54.69
2018-05-18T11:50:24.976Z,55.11
2018-05-18T11:52:54.137Z,55.17
2018-05-18T11:55:22.560Z,54.71
2018-05-18T11:57:51.713Z,54.68
2018-05-18T12:00:20.073Z,54.66
2018-05-18T12:02:48.474Z,54.45
2018-05-18T12:05:19.133Z,54.36
2018-05-18T12:07:50.763Z,54.38
2018-05-18T12:10:19.171Z,54.07
2018-05-18T12:12:48.285Z,53.71
2018-05-18T12:15:16.631Z,53.69
2018-05-18T12:17:45.053Z,53.45
2018-05-18T12:20:13.797Z,53.60
2018-05-18T12:22:42.921Z,53.32
2018-05-18T12:25:12.011Z,53.37
2018-05-18T12:27:41.164Z,53.93
2018-05-18T12:30:13.640Z,53.62
2018-05-18T12:32:42.042Z,53.25
2018-05-18T12:35:11.836Z,53.69
2018-05-18T12:37:40.258Z,53.29
2018-05-18T12:40:09.336Z,53.94
2018-05-18T12:42:38.530Z,53.74
2018-05-18T12:45:07.628Z,53.82
2018-05-18T12:47:36.004Z,53.57
2018-05-18T12:50:05.165Z,53.84
2018-05-18T12:52:33.487Z,53.90
2018-05-18T12:55:02.706Z,53.50
2018-05-18T12:57:31.084Z,53.26
2018-05-18T12:59:59.412Z,53.19
2018-05-18T13:02:27.783Z,52.74
2018-05-18T13:04:56.117Z,52.92
2018-05-18T13:07:24.473Z,53.42
2018-05-18T13:09:54.687Z,53.61
2018-05-18T13:12:23.154Z,53.59
2018-05-18T13:14:52.196Z,53.32
2018-05-18T13:17:21.313Z,53.52
2018-05-18T13:19:49.760Z,53.35
2018-05-18T13:22:18.944Z,53.33
2018-05-18T13:24:48.132Z,53.18
2018-05-18T13:27:16.727Z,53.74
2018-05-18T13:29:45.726Z,53.51
2018-05-18T13:32:14.866Z,53.72
2018-05-18T13:34:43.244Z,53.59
2018-05-18T13:37:12.652Z,53.18
2018-05-18T13:39:41.080Z,53.36
2018-05-18T13:42:10.242Z,53.55
2018-05-18T13:44:41.008Z,53.90
2018-05-18T13:47:10.365Z,53.61
2018-05-18T13:49:38.772Z,53.61
2018-05-18T13:52:08.159Z,53.28
2018-05-18T13:54:36.600Z,53.88
2018-05-18T13:57:05.344Z,53.91
2018-05-18T13:59:33.803Z,53.52
2018-05-18T14:02:02.161Z,53.41
2018-05-18T14:04:30.564Z,52.77
2018-05-18T14:06:58.918Z,53.52
2018-05-18T14:09:27.426Z,53.13
2018-05-18T14:11:55.837Z,53.19
2018-05-18T14:14:25.721Z,53.16
2018-05-18T14:16:54.071Z,53.34
2018-05-18T14:19:22.450Z,52.78
2018-05-18T14:21:50.800Z,52.28
2018-05-18T14:24:20.625Z,52.60
2018-05-18T14:26:49.731Z,52.57
2018-05-18T14:29:18.779Z,52.92
2018-05-18T14:31:47.199Z,53.20
2018-05-18T14:34:15.620Z,53.23
2018-05-18T14:36:44.122Z,52.81
2018-05-18T14:39:13.571Z,52.73
2018-05-18T14:41:43.807Z,52.57
2018-05-18T14:44:13.380Z,52.52
2018-05-18T14:46:42.521Z,52.44
2018-05-18T14:49:10.860Z,52.88
2018-05-18T14:51:40.298Z,52.71
2018-05-18T14:54:08.639Z,52.59
2018-05-18T14:56:37.864Z,52.54
2018-05-18T14:59:06.310Z,52.95
2018-05-18T15:01:35.414Z,52.36
2018-05-18T15:04:04.980Z,52.16
2018-05-18T15:06:34.866Z,52.85
2018-05-18T15:09:03.555Z,52.75
2018-05-18T15:11:31.952Z,51.96
2018-05-18T15:14:00.329Z,52.41
2018-05-18T15:16:28.727Z,51.84
2018-05-18T15:18:57.093Z,51.41
2018-05-18T15:21:25.957Z,51.20
2018-05-18T15:23:54.410Z,51.01
2018-05-18T15:26:23.551Z,50.72
2018-05-18T15:28:52.836Z,51.10
2018-05-18T15:31:21.279Z,51.05
2018-05-18T15:33:51.163Z,51.11
2018-05-18T15:36:20.353Z,50.90
2018-05-18T15:38:48.680Z,50.72
2018-05-18T15:41:17.555Z,50.97
2018-05-18T15:43:45.948Z,51.30
2018-05-18T15:46:16.234Z,51.10
2018-05-18T15:48:44.667Z,51.09
2018-05-18T15:51:13.255Z,51.16
2018-05-18T15:53:41.609Z,51.29
2018-05-18T15:56:10.758Z,51.11
2018-05-18T15:58:39.173Z,51.13
2018-05-18T16:01:08.336Z,50.73
2018-05-18T16:03:36.721Z,51.01
2018-05-18T16:06:05.934Z,50.70
2018-05-18T16:08:34.298Z,51.25
2018-05-18T16:11:02.639Z,50.81
2018-05-18T16:13:31.230Z,50.45
2018-05-18T16:15:59.580Z,50.39
2018-05-18T16:18:29.339Z,50.71
2018-05-18T16:20:57.788Z,50.49
2018-05-18T16:23:26.481Z,50.88
2018-05-18T16:25:55.820Z,50.88
2018-05-18T16:28:24.260Z,51.26
2018-05-18T16:30:52.694Z,51.27
2018-05-18T16:33:21.697Z,51.40
2018-05-18T16:35:50.802Z,51.09
2018-05-18T16:38:20.082Z,51.13
2018-05-18T16:40:48.646Z,51.52
2018-05-18T16:43:16.969Z,50.83
2018-05-18T16:45:46.071Z,51.12
2018-05-18T16:48:14.421Z,50.94
2018-05-18T16:50:43.596Z,51.73
2018-05-18T16:53:12.693Z,51.06
2018-05-18T16:55:41.136Z,50.65
2018-05-18T16:58:09.569Z,50.77
2018-05-18T17:00:38.259Z,50.98
2018-05-18T17:03:06.634Z,51.87
2018-05-18T17:05:34.967Z,50.98
2018-05-18T17:08:03.332Z,51.17
2018-05-18T17:10:32.270Z,50.60
2018-05-18T17:13:00.616Z,51.04
2018-05-18T17:15:28.993Z,51.14
2018-05-18T17:17:57.421Z,51.14
2018-05-18T17:20:25.988Z,51.12
2018-05-18T17:22:54.332Z,50.79
2018-05-18T17:25:24.262Z,50.79
2018-05-18T17:27:52.630Z,50.95
2018-05-18T17:30:20.978Z,52.63
2018-05-18T17:32:49.443Z,51.29
2018-05-18T17:35:18.578Z,52.02
2018-05-18T17:37:46.989Z,53.13
2018-05-18T17:40:16.111Z,52.13
2018-05-18T17:42:45.231Z,51.87
2018-05-18T17:45:13.714Z,52.61
2018-05-18T17:47:42.173Z,52.78
2018-05-18T17:50:12.075Z,52.79
2018-05-18T17:52:40.420Z,52.56
2018-05-18T17:55:09.836Z,53.06
2018-05-18T17:57:38.213Z,53.95
2018-05-18T18:00:06.589Z,52.68
2018-05-18T18:02:35.683Z,53.28
2018-05-18T18:05:04.040Z,52.96
2018-05-18T18:07:32.400Z,52.86
2018-05-18T18:10:00.986Z,53.59
2018-05-18T18:12:29.457Z,53.89
2018-05-18T18:14:58.546Z,53.25
2018-05-18T18:17:27.701Z,53.08
2018-05-18T18:19:56.412Z,52.67
2018-05-18T18:22:25.591Z,53.01
2018-05-18T18:24:53.918Z,52.89
2018-05-18T18:27:22.291Z,53.49
2018-05-18T18:29:50.656Z,53.40
2018-05-18T18:32:19.781Z,53.63
2018-05-18T18:34:50.293Z,54.29
2018-05-18T18:37:18.679Z,54.14
2018-05-18T18:39:47.039Z,54.43
2018-05-18T18:42:16.188Z,54.76
2018-05-18T18:44:44.527Z,55.21
2018-05-18T18:47:12.963Z,55.83
2018-05-18T18:49:41.488Z,56.10
2018-05-18T18:52:10.647Z,55.93
2018-05-18T18:54:39.120Z,56.02
2018-05-18T18:57:07.550Z,56.43
2018-05-18T18:59:36.687Z,56.51
2018-05-18T19:02:05.073Z,56.75
2018-05-18T19:04:33.469Z,57.25
2018-05-18T19:07:02.657Z,56.89
2018-05-18T19:09:31.035Z,56.78
2018-05-18T19:11:59.449Z,57.01
2018-05-18T19:14:29.186Z,56.94
2018-05-18T19:16:57.562Z,57.46
2018-05-18T19:19:25.920Z,57.22
2018-05-18T19:21:55.067Z,57.17
2018-05-18T19:24:23.495Z,57.90
2018-05-18T19:26:51.818Z,57.94
2018-05-18T19:29:20.986Z,58.14
2018-05-18T19:31:49.340Z,58.17
2018-05-18T19:34:18.444Z,58.44
2018-05-18T19:36:47.588Z,58.34
2018-05-18T19:39:15.935Z,58.27
2018-05-18T19:41:44.277Z,58.44
2018-05-18T19:44:12.670Z,58.27
2018-05-18T19:46:41.832Z,58.86
2018-05-18T19:49:10.264Z,58.95
2018-05-18T19:51:38.608Z,59.01
2018-05-18T19:54:06.998Z,58.84
2018-05-18T19:56:36.271Z,59.20
2018-05-18T19:59:04.680Z,59.27
2018-05-18T20:01:33.840Z,59.35
2018-05-18T20:04:02.249Z,59.69
2018-05-18T20:06:32.238Z,59.29
2018-05-18T20:09:01.783Z,59.38
2018-05-18T20:11:30.948Z,59.65
2018-05-18T20:13:59.387Z,59.46
2018-05-18T20:16:27.778Z,59.56
2018-05-18T20:18:56.238Z,59.51
2018-05-18T20:21:24.589Z,59.87
2018-05-18T20:23:53.393Z,59.53
2018-05-18T20:26:22.518Z,59.72
2018-05-18T20:28:50.839Z,60.06
2018-05-18T20:31:19.339Z,59.77
2018-05-18T20:33:48.546Z,60.32
2018-05-18T20:36:17.700Z,60.04
2018-05-18T20:38:46.823Z,60.75
2018-05-18T20:41:15.166Z,60.52
2018-05-18T20:43:43.562Z,60.63
2018-05-18T20:46:11.949Z,60.81
2018-05-18T20:48:40.514Z,60.90
2018-05-18T20:51:08.905Z,61.00
2018-05-18T20:53:37.271Z,61.06
2018-05-18T20:56:06.737Z,60.92
2018-05-18T20:58:35.374Z,61.17
2018-05-18T21:01:03.690Z,61.11
2018-05-18T21:03:32.063Z,61.26
2018-05-18T21:06:00.503Z,61.40
2018-05-18T21:08:28.874Z,61.64
2018-05-18T21:10:57.221Z,61.61
2018-05-18T21:13:25.602Z,61.98
2018-05-18T21:15:53.936Z,61.42
2018-05-18T21:18:22.296Z,61.44
2018-05-18T21:20:50.707Z,61.30
2018-05-18T21:23:20.212Z,61.56
2018-05-18T21:25:49.347Z,61.73
2018-05-18T21:28:17.725Z,61.71
2018-05-18T21:30:46.125Z,61.53
2018-05-18T21:33:14.519Z,61.19
2018-05-18T21:35:42.929Z,61.46
2018-05-18T21:38:12.091Z,61.52
2018-05-18T21:40:40.814Z,61.31
2018-05-18T21:43:09.926Z,61.48
2018-05-18T21:45:38.265Z,61.61
2018-05-18T21:48:06.606Z,61.67
2018-05-18T21:50:34.955Z,61.55
2018-05-18T21:53:03.295Z,61.70
2018-05-18T21:55:31.654Z,61.53
2018-05-18T21:58:00.043Z,61.63
2018-05-18T22:00:28.409Z,61.73
2018-05-18T22:02:56.775Z,61.43
2018-05-18T22:05:25.141Z,61.80
2018-05-18T22:07:53.528Z,61.52
2018-05-18T22:10:21.883Z,61.52
2018-05-18T22:12:50.264Z,61.45
2018-05-18T22:15:18.642Z,61.98
2018-05-18T22:17:46.984Z,61.69
2018-05-18T22:20:15.357Z,61.38
2018-05-18T22:22:43.740Z,61.29
2018-05-18T22:25:12.103Z,61.31
2018-05-18T22:27:40.520Z,61.13
2018-05-18T22:30:09.651Z,61.17
2018-05-18T22:32:38.065Z,61.08
2018-05-18T22:35:06.437Z,61.05
2018-05-18T22:37:34.828Z,60.84
2018-05-18T22:40:03.181Z,60.77
2018-05-18T22:42:32.367Z,60.70
2018-05-18T22:45:00.813Z,60.77
2018-05-18T22:47:29.185Z,60.62
2018-05-18T22:49:58.340Z,60.70
2018-05-18T22:52:26.662Z,60.64
2018-05-18T22:54:55.801Z,60.75
2018-05-18T22:57:24.142Z,60.70
2018-05-18T22:59:53.266Z,60.57
2018-05-18T23:02:21.656Z,60.35
2018-05-18T23:04:49.993Z,60.39
2018-05-18T23:07:19.120Z,60.49
2018-05-18T23:09:47.503Z,60.58
2018-05-18T23:12:15.835Z,60.55
2018-05-18T23:14:44.160Z,60.50
2018-05-18T23:17:13.298Z,61.01
2018-05-18T23:19:41.667Z,60.66
2018-05-18T23:22:11.495Z,61.22
2018-05-18T23:24:39.978Z,61.27
2018-05-18T23:27:08.324Z,60.58
2018-05-18T23:29:36.658Z,60.12
2018-05-18T23:32:05.036Z,60.22
2018-05-18T23:34:34.156Z,60.53
2018-05-18T23:37:02.546Z,60.85
2018-05-18T23:39:30.915Z,61.24
2018-05-18T23:41:59.260Z,61.41
2018-05-18T23:44:28.410Z,61.59
2018-05-18T23:46:57.508Z,61.80
2018-05-18T23:49:25.846Z,62.32
2018-05-18T23:51:54.195Z,62.22
2018-05-18T23:54:22.606Z,62.29
2018-05-18T23:56:50.949Z,62.34
2018-05-18T23:59:19.328Z,62.44
